sensor_id;sensor_type;location;lat;lon;timestamp;P1;durP1;ratioP1;P2;durP2;ratioP2
83443;SDS011;73374;41.170;-96.156;2024-03-22T00:02:32;9.52;;;1.40;;
83443;SDS011;73374;41.170;-96.156;2024-03-22T00:07:35;3.60;;;0.82;;
83443;SDS011;73374;41.170;-96.156;2024-03-22T00:12:37;4.10;;;1.25;;
83443;SDS011;73374;41.170;-96.156;2024-03-22T00:17:42;4.07;;;1.17;;
83443;SDS011;73374;41.170;-96.156;2024-03-22T00:22:45;2.17;;;0.88;;
83443;SDS011;73374;41.170;-96.156;2024-03-22T00:27:47;1.33;;;0.85;;
83443;SDS011;73374;41.170;-96.156;2024-03-22T00:32:50;4.22;;;1.63;;
83443;SDS011;73374;41.170;-96.156;2024-03-22T00:37:52;3.58;;;1.50;;
83443;SDS011;73374;41.170;-96.156;2024-03-22T00:42:53;5.80;;;1.42;;
83443;SDS011;73374;41.170;-96.156;2024-03-22T00:47:56;2.88;;;0.98;;
83443;SDS011;73374;41.170;-96.156;2024-03-22T00:52:58;3.05;;;1.27;;
83443;SDS011;73374;41.170;-96.156;2024-03-22T00:58:00;3.05;;;1.30;;
83443;SDS011;73374;41.170;-96.156;2024-03-22T01:03:03;3.17;;;1.30;;
83443;SDS011;73374;41.170;-96.156;2024-03-22T01:08:05;3.35;;;1.60;;
83443;SDS011;73374;41.170;-96.156;2024-03-22T01:13:07;3.90;;;1.17;;
83443;SDS011;73374;41.170;-96.156;2024-03-22T01:18:10;2.70;;;1.08;;
83443;SDS011;73374;41.170;-96.156;2024-03-22T01:23:12;4.15;;;1.65;;
83443;SDS011;73374;41.170;-96.156;2024-03-22T01:28:14;5.00;;;1.60;;
83443;SDS011;73374;41.170;-96.156;2024-03-22T01:33:17;1.35;;;0.80;;
83443;SDS011;73374;41.170;-96.156;2024-03-22T01:38:18;3.58;;;1.40;;
83443;SDS011;73374;41.170;-96.156;2024-03-22T01:43:20;6.97;;;1.50;;
83443;SDS011;73374;41.170;-96.156;2024-03-22T01:48:23;6.22;;;1.50;;
83443;SDS011;73374;41.170;-96.156;2024-03-22T01:53:25;6.70;;;1.77;;
83443;SDS011;73374;41.170;-96.156;2024-03-22T01:58:26;6.43;;;1.60;;
83443;SDS011;73374;41.170;-96.156;2024-03-22T02:03:30;3.05;;;1.20;;
83443;SDS011;73374;41.170;-96.156;2024-03-22T02:08:32;3.05;;;1.98;;
83443;SDS011;73374;41.170;-96.156;2024-03-22T02:13:34;6.57;;;1.55;;
83443;SDS011;73374;41.170;-96.156;2024-03-22T02:18:37;3.85;;;1.30;;
83443;SDS011;73374;41.170;-96.156;2024-03-22T02:23:40;2.05;;;1.30;;
83443;SDS011;73374;41.170;-96.156;2024-03-22T02:28:42;4.55;;;1.58;;
83443;SDS011;73374;41.170;-96.156;2024-03-22T02:33:44;1.83;;;0.98;;
83443;SDS011;73374;41.170;-96.156;2024-03-22T02:38:47;7.03;;;1.65;;
83443;SDS011;73374;41.170;-96.156;2024-03-22T02:43:49;4.40;;;1.42;;
83443;SDS011;73374;41.170;-96.156;2024-03-22T02:48:50;11.00;;;1.98;;
83443;SDS011;73374;41.170;-96.156;2024-03-22T02:53:54;10.25;;;1.58;;
83443;SDS011;73374;41.170;-96.156;2024-03-22T02:58:56;3.88;;;1.67;;
83443;SDS011;73374;41.170;-96.156;2024-03-22T03:03:57;1.95;;;0.93;;
83443;SDS011;73374;41.170;-96.156;2024-03-22T03:09:00;2.67;;;0.98;;
83443;SDS011;73374;41.170;-96.156;2024-03-22T03:14:02;2.70;;;1.38;;
83443;SDS011;73374;41.170;-96.156;2024-03-22T03:19:04;10.30;;;1.60;;
83443;SDS011;73374;41.170;-96.156;2024-03-22T03:24:07;5.07;;;1.45;;
83443;SDS011;73374;41.170;-96.156;2024-03-22T03:29:08;4.82;;;1.15;;
83443;SDS011;73374;41.170;-96.156;2024-03-22T03:34:10;5.57;;;1.77;;
83443;SDS011;73374;41.170;-96.156;2024-03-22T03:39:13;4.15;;;1.70;;
83443;SDS011;73374;41.170;-96.156;2024-03-22T03:44:15;3.33;;;1.20;;
83443;SDS011;73374;41.170;-96.156;2024-03-22T03:49:17;2.38;;;1.67;;
83443;SDS011;73374;41.170;-96.156;2024-03-22T03:54:20;4.65;;;1.83;;
83443;SDS011;73374;41.170;-96.156;2024-03-22T03:59:22;3.78;;;1.90;;
83443;SDS011;73374;41.170;-96.156;2024-03-22T04:04:24;1.85;;;1.20;;
83443;SDS011;73374;41.170;-96.156;2024-03-22T04:09:27;4.20;;;1.83;;
83443;SDS011;73374;41.170;-96.156;2024-03-22T04:14:29;7.55;;;1.92;;
83443;SDS011;73374;41.170;-96.156;2024-03-22T04:19:30;2.03;;;1.20;;
83443;SDS011;73374;41.170;-96.156;2024-03-22T04:24:34;4.30;;;1.83;;
83443;SDS011;73374;41.170;-96.156;2024-03-22T04:29:35;2.72;;;1.70;;
83443;SDS011;73374;41.170;-96.156;2024-03-22T04:34:37;1.20;;;0.93;;
83443;SDS011;73374;41.170;-96.156;2024-03-22T04:39:45;3.58;;;1.77;;
83443;SDS011;73374;41.170;-96.156;2024-03-22T04:44:47;3.45;;;1.38;;
83443;SDS011;73374;41.170;-96.156;2024-03-22T04:49:49;6.35;;;2.35;;
83443;SDS011;73374;41.170;-96.156;2024-03-22T04:54:52;2.08;;;1.52;;
83443;SDS011;73374;41.170;-96.156;2024-03-22T04:59:53;6.40;;;2.63;;
83443;SDS011;73374;41.170;-96.156;2024-03-22T05:04:55;2.75;;;1.50;;
83443;SDS011;73374;41.170;-96.156;2024-03-22T05:09:58;2.63;;;1.30;;
83443;SDS011;73374;41.170;-96.156;2024-03-22T05:15:00;5.63;;;1.80;;
83443;SDS011;73374;41.170;-96.156;2024-03-22T05:20:03;4.93;;;1.38;;
83443;SDS011;73374;41.170;-96.156;2024-03-22T05:25:08;8.23;;;1.65;;
83443;SDS011;73374;41.170;-96.156;2024-03-22T05:30:10;1.35;;;0.95;;
83443;SDS011;73374;41.170;-96.156;2024-03-22T05:35:13;6.45;;;2.95;;
83443;SDS011;73374;41.170;-96.156;2024-03-22T05:40:16;4.15;;;2.30;;
83443;SDS011;73374;41.170;-96.156;2024-03-22T05:45:18;5.28;;;2.22;;
83443;SDS011;73374;41.170;-96.156;2024-03-22T05:50:20;2.92;;;1.80;;
83443;SDS011;73374;41.170;-96.156;2024-03-22T05:55:23;3.35;;;1.30;;
83443;SDS011;73374;41.170;-96.156;2024-03-22T06:00:24;6.28;;;2.28;;
83443;SDS011;73374;41.170;-96.156;2024-03-22T06:05:26;4.03;;;1.30;;
83443;SDS011;73374;41.170;-96.156;2024-03-22T06:10:29;1.83;;;1.38;;
83443;SDS011;73374;41.170;-96.156;2024-03-22T06:15:31;4.32;;;1.45;;
83443;SDS011;73374;41.170;-96.156;2024-03-22T06:20:32;2.97;;;1.60;;
83443;SDS011;73374;41.170;-96.156;2024-03-22T06:25:36;5.97;;;2.53;;
83443;SDS011;73374;41.170;-96.156;2024-03-22T06:30:37;4.80;;;1.98;;
83443;SDS011;73374;41.170;-96.156;2024-03-22T06:35:40;4.15;;;2.53;;
83443;SDS011;73374;41.170;-96.156;2024-03-22T06:40:44;3.78;;;1.27;;
83443;SDS011;73374;41.170;-96.156;2024-03-22T06:45:46;8.63;;;3.25;;
83443;SDS011;73374;41.170;-96.156;2024-03-22T06:50:47;10.38;;;3.33;;
83443;SDS011;73374;41.170;-96.156;2024-03-22T06:55:51;9.20;;;2.67;;
83443;SDS011;73374;41.170;-96.156;2024-03-22T07:00:53;3.97;;;2.67;;
83443;SDS011;73374;41.170;-96.156;2024-03-22T07:05:54;6.45;;;3.10;;
83443;SDS011;73374;41.170;-96.156;2024-03-22T07:10:57;11.20;;;2.83;;
83443;SDS011;73374;41.170;-96.156;2024-03-22T07:15:59;4.35;;;2.38;;
83443;SDS011;73374;41.170;-96.156;2024-03-22T07:21:01;4.43;;;1.77;;
83443;SDS011;73374;41.170;-96.156;2024-03-22T07:26:04;6.68;;;2.67;;
83443;SDS011;73374;41.170;-96.156;2024-03-22T07:31:05;2.80;;;1.23;;
83443;SDS011;73374;41.170;-96.156;2024-03-22T07:36:07;5.15;;;2.42;;
83443;SDS011;73374;41.170;-96.156;2024-03-22T07:41:10;4.03;;;2.22;;
83443;SDS011;73374;41.170;-96.156;2024-03-22T07:46:12;4.15;;;1.23;;
83443;SDS011;73374;41.170;-96.156;2024-03-22T07:51:14;4.28;;;1.98;;
83443;SDS011;73374;41.170;-96.156;2024-03-22T07:56:17;6.95;;;2.67;;
83443;SDS011;73374;41.170;-96.156;2024-03-22T08:01:18;3.72;;;1.73;;
83443;SDS011;73374;41.170;-96.156;2024-03-22T08:06:20;10.02;;;3.15;;
83443;SDS011;73374;41.170;-96.156;2024-03-22T08:11:23;2.28;;;1.17;;
83443;SDS011;73374;41.170;-96.156;2024-03-22T08:16:25;3.72;;;2.50;;
83443;SDS011;73374;41.170;-96.156;2024-03-22T08:21:27;6.97;;;2.53;;
83443;SDS011;73374;41.170;-96.156;2024-03-22T08:26:30;5.75;;;2.47;;
83443;SDS011;73374;41.170;-96.156;2024-03-22T08:31:32;3.80;;;1.98;;
83443;SDS011;73374;41.170;-96.156;2024-03-22T08:36:33;6.63;;;3.10;;
83443;SDS011;73374;41.170;-96.156;2024-03-22T08:41:37;4.75;;;1.95;;
83443;SDS011;73374;41.170;-96.156;2024-03-22T08:46:38;2.80;;;1.38;;
83443;SDS011;73374;41.170;-96.156;2024-03-22T08:51:40;4.60;;;2.72;;
83443;SDS011;73374;41.170;-96.156;2024-03-22T08:56:43;5.10;;;2.58;;
83443;SDS011;73374;41.170;-96.156;2024-03-22T09:01:45;3.17;;;0.98;;
83443;SDS011;73374;41.170;-96.156;2024-03-22T09:06:46;16.42;;;2.80;;
83443;SDS011;73374;41.170;-96.156;2024-03-22T09:11:50;5.00;;;2.88;;
83443;SDS011;73374;41.170;-96.156;2024-03-22T09:16:51;5.22;;;2.03;;
83443;SDS011;73374;41.170;-96.156;2024-03-22T09:21:53;6.80;;;3.47;;
83443;SDS011;73374;41.170;-96.156;2024-03-22T09:26:56;6.25;;;2.92;;
83443;SDS011;73374;41.170;-96.156;2024-03-22T09:31:58;12.20;;;3.50;;
83443;SDS011;73374;41.170;-96.156;2024-03-22T09:37:00;6.13;;;3.50;;
83443;SDS011;73374;41.170;-96.156;2024-03-22T09:42:03;8.90;;;2.45;;
83443;SDS011;73374;41.170;-96.156;2024-03-22T09:47:07;8.90;;;3.42;;
83443;SDS011;73374;41.170;-96.156;2024-03-22T09:52:10;5.80;;;3.33;;
83443;SDS011;73374;41.170;-96.156;2024-03-22T09:57:15;6.88;;;2.45;;
83443;SDS011;73374;41.170;-96.156;2024-03-22T10:02:17;4.88;;;2.60;;
83443;SDS011;73374;41.170;-96.156;2024-03-22T10:07:19;7.53;;;3.80;;
83443;SDS011;73374;41.170;-96.156;2024-03-22T10:12:22;3.35;;;2.53;;
83443;SDS011;73374;41.170;-96.156;2024-03-22T10:17:25;6.07;;;3.30;;
83443;SDS011;73374;41.170;-96.156;2024-03-22T10:22:27;5.28;;;2.20;;
83443;SDS011;73374;41.170;-96.156;2024-03-22T10:27:30;6.97;;;3.03;;
83443;SDS011;73374;41.170;-96.156;2024-03-22T10:32:32;5.70;;;3.05;;
83443;SDS011;73374;41.170;-96.156;2024-03-22T10:37:34;6.38;;;3.35;;
83443;SDS011;73374;41.170;-96.156;2024-03-22T10:42:37;8.10;;;3.58;;
83443;SDS011;73374;41.170;-96.156;2024-03-22T10:47:40;2.28;;;1.60;;
83443;SDS011;73374;41.170;-96.156;2024-03-22T10:52:49;7.40;;;3.88;;
83443;SDS011;73374;41.170;-96.156;2024-03-22T10:57:55;7.03;;;2.90;;
83443;SDS011;73374;41.170;-96.156;2024-03-22T11:02:57;9.88;;;3.78;;
83443;SDS011;73374;41.170;-96.156;2024-03-22T11:07:59;7.75;;;3.42;;
83443;SDS011;73374;41.170;-96.156;2024-03-22T11:13:02;6.20;;;4.18;;
83443;SDS011;73374;41.170;-96.156;2024-03-22T11:18:05;5.95;;;3.08;;
83443;SDS011;73374;41.170;-96.156;2024-03-22T11:23:06;4.70;;;2.95;;
83443;SDS011;73374;41.170;-96.156;2024-03-22T11:28:10;6.32;;;4.25;;
83443;SDS011;73374;41.170;-96.156;2024-03-22T11:33:11;10.00;;;5.25;;
83443;SDS011;73374;41.170;-96.156;2024-03-22T11:38:13;9.88;;;5.15;;
83443;SDS011;73374;41.170;-96.156;2024-03-22T11:43:17;6.75;;;3.50;;
83443;SDS011;73374;41.170;-96.156;2024-03-22T11:48:19;8.68;;;4.22;;
83443;SDS011;73374;41.170;-96.156;2024-03-22T11:53:22;7.70;;;3.28;;
83443;SDS011;73374;41.170;-96.156;2024-03-22T11:58:27;6.65;;;3.80;;
83443;SDS011;73374;41.170;-96.156;2024-03-22T12:03:29;2.88;;;2.00;;
83443;SDS011;73374;41.170;-96.156;2024-03-22T12:08:30;7.20;;;3.50;;
83443;SDS011;73374;41.170;-96.156;2024-03-22T12:13:33;7.75;;;4.20;;
83443;SDS011;73374;41.170;-96.156;2024-03-22T12:18:35;12.30;;;5.80;;
83443;SDS011;73374;41.170;-96.156;2024-03-22T12:23:37;10.50;;;5.57;;
83443;SDS011;73374;41.170;-96.156;2024-03-22T12:28:40;9.48;;;5.78;;
83443;SDS011;73374;41.170;-96.156;2024-03-22T12:33:41;12.52;;;6.07;;
83443;SDS011;73374;41.170;-96.156;2024-03-22T12:38:43;11.05;;;5.70;;
83443;SDS011;73374;41.170;-96.156;2024-03-22T12:43:46;7.88;;;5.35;;
83443;SDS011;73374;41.170;-96.156;2024-03-22T12:48:48;9.68;;;5.78;;
83443;SDS011;73374;41.170;-96.156;2024-03-22T12:53:50;9.68;;;5.25;;
83443;SDS011;73374;41.170;-96.156;2024-03-22T12:58:53;7.95;;;5.43;;
83443;SDS011;73374;41.170;-96.156;2024-03-22T13:03:55;10.23;;;5.80;;
83443;SDS011;73374;41.170;-96.156;2024-03-22T13:08:56;8.75;;;5.63;;
83443;SDS011;73374;41.170;-96.156;2024-03-22T13:13:59;11.57;;;5.38;;
83443;SDS011;73374;41.170;-96.156;2024-03-22T13:19:01;8.00;;;5.70;;
83443;SDS011;73374;41.170;-96.156;2024-03-22T13:24:02;9.60;;;6.35;;
83443;SDS011;73374;41.170;-96.156;2024-03-22T13:29:06;8.70;;;5.18;;
83443;SDS011;73374;41.170;-96.156;2024-03-22T13:34:07;8.15;;;5.60;;
83443;SDS011;73374;41.170;-96.156;2024-03-22T13:39:09;8.00;;;5.47;;
83443;SDS011;73374;41.170;-96.156;2024-03-22T13:44:12;5.60;;;3.95;;
83443;SDS011;73374;41.170;-96.156;2024-03-22T13:49:14;7.85;;;4.72;;
83443;SDS011;73374;41.170;-96.156;2024-03-22T13:54:17;7.70;;;4.57;;
83443;SDS011;73374;41.170;-96.156;2024-03-22T13:59:20;7.45;;;4.70;;
83443;SDS011;73374;41.170;-96.156;2024-03-22T14:04:22;6.25;;;4.47;;
83443;SDS011;73374;41.170;-96.156;2024-03-22T14:09:24;10.40;;;5.78;;
83443;SDS011;73374;41.170;-96.156;2024-03-22T14:14:27;6.72;;;5.38;;
83443;SDS011;73374;41.170;-96.156;2024-03-22T14:19:29;9.07;;;6.57;;
83443;SDS011;73374;41.170;-96.156;2024-03-22T14:24:30;9.98;;;5.32;;
83443;SDS011;73374;41.170;-96.156;2024-03-22T14:29:34;8.50;;;5.05;;
83443;SDS011;73374;41.170;-96.156;2024-03-22T14:34:35;7.25;;;5.45;;
83443;SDS011;73374;41.170;-96.156;2024-03-22T14:39:37;8.18;;;5.32;;
83443;SDS011;73374;41.170;-96.156;2024-03-22T14:44:40;5.88;;;4.57;;
83443;SDS011;73374;41.170;-96.156;2024-03-22T14:49:42;6.53;;;4.72;;
83443;SDS011;73374;41.170;-96.156;2024-03-22T14:54:44;6.30;;;3.80;;
83443;SDS011;73374;41.170;-96.156;2024-03-22T14:59:47;6.78;;;4.93;;
83443;SDS011;73374;41.170;-96.156;2024-03-22T15:04:49;6.05;;;4.68;;
83443;SDS011;73374;41.170;-96.156;2024-03-22T15:09:50;7.07;;;4.63;;
83443;SDS011;73374;41.170;-96.156;2024-03-22T15:14:53;6.38;;;4.90;;
83443;SDS011;73374;41.170;-96.156;2024-03-22T15:19:55;7.90;;;5.35;;
83443;SDS011;73374;41.170;-96.156;2024-03-22T15:24:57;7.72;;;4.80;;
83443;SDS011;73374;41.170;-96.156;2024-03-22T15:30:00;4.95;;;4.07;;
83443;SDS011;73374;41.170;-96.156;2024-03-22T15:35:02;7.22;;;4.50;;
83443;SDS011;73374;41.170;-96.156;2024-03-22T15:40:04;7.53;;;5.32;;
83443;SDS011;73374;41.170;-96.156;2024-03-22T15:45:09;5.93;;;3.97;;
83443;SDS011;73374;41.170;-96.156;2024-03-22T15:50:11;9.32;;;4.60;;
83443;SDS011;73374;41.170;-96.156;2024-03-22T15:55:12;8.57;;;5.47;;
83443;SDS011;73374;41.170;-96.156;2024-03-22T16:00:16;6.60;;;5.07;;
83443;SDS011;73374;41.170;-96.156;2024-03-22T16:05:18;6.78;;;4.07;;
83443;SDS011;73374;41.170;-96.156;2024-03-22T16:10:20;5.60;;;4.00;;
83443;SDS011;73374;41.170;-96.156;2024-03-22T16:15:23;7.57;;;5.28;;
83443;SDS011;73374;41.170;-96.156;2024-03-22T16:20:25;5.85;;;4.85;;
83443;SDS011;73374;41.170;-96.156;2024-03-22T16:25:27;8.23;;;4.93;;
83443;SDS011;73374;41.170;-96.156;2024-03-22T16:30:30;6.88;;;5.00;;
83443;SDS011;73374;41.170;-96.156;2024-03-22T16:35:32;8.55;;;5.30;;
83443;SDS011;73374;41.170;-96.156;2024-03-22T16:40:34;7.93;;;4.55;;
83443;SDS011;73374;41.170;-96.156;2024-03-22T16:45:37;9.98;;;4.43;;
83443;SDS011;73374;41.170;-96.156;2024-03-22T16:50:41;7.45;;;4.90;;
83443;SDS011;73374;41.170;-96.156;2024-03-22T16:55:42;7.35;;;5.32;;
83443;SDS011;73374;41.170;-96.156;2024-03-22T17:00:46;6.55;;;5.13;;
83443;SDS011;73374;41.170;-96.156;2024-03-22T17:05:47;10.13;;;5.05;;
83443;SDS011;73374;41.170;-96.156;2024-03-22T17:10:49;7.63;;;5.78;;
83443;SDS011;73374;41.170;-96.156;2024-03-22T17:15:52;8.45;;;5.53;;
83443;SDS011;73374;41.170;-96.156;2024-03-22T17:20:54;7.90;;;6.10;;
83443;SDS011;73374;41.170;-96.156;2024-03-22T17:25:59;8.48;;;5.25;;
83443;SDS011;73374;41.170;-96.156;2024-03-22T17:31:02;8.85;;;4.65;;
83443;SDS011;73374;41.170;-96.156;2024-03-22T17:36:04;9.45;;;6.50;;
83443;SDS011;73374;41.170;-96.156;2024-03-22T17:41:06;8.63;;;5.22;;
83443;SDS011;73374;41.170;-96.156;2024-03-22T17:46:09;8.35;;;5.70;;
83443;SDS011;73374;41.170;-96.156;2024-03-22T17:51:11;6.85;;;5.13;;
83443;SDS011;73374;41.170;-96.156;2024-03-22T17:56:12;9.52;;;6.05;;
83443;SDS011;73374;41.170;-96.156;2024-03-22T18:01:16;8.07;;;6.10;;
83443;SDS011;73374;41.170;-96.156;2024-03-22T18:06:17;5.90;;;4.65;;
83443;SDS011;73374;41.170;-96.156;2024-03-22T18:11:20;9.52;;;6.28;;
83443;SDS011;73374;41.170;-96.156;2024-03-22T18:16:23;7.65;;;5.65;;
83443;SDS011;73374;41.170;-96.156;2024-03-22T18:21:26;9.75;;;5.40;;
83443;SDS011;73374;41.170;-96.156;2024-03-22T18:26:28;8.60;;;5.45;;
83443;SDS011;73374;41.170;-96.156;2024-03-22T18:31:31;8.68;;;4.18;;
83443;SDS011;73374;41.170;-96.156;2024-03-22T18:36:33;9.25;;;5.05;;
83443;SDS011;73374;41.170;-96.156;2024-03-22T18:41:35;5.90;;;4.35;;
83443;SDS011;73374;41.170;-96.156;2024-03-22T18:46:38;9.10;;;5.10;;
83443;SDS011;73374;41.170;-96.156;2024-03-22T18:51:39;10.90;;;4.85;;
83443;SDS011;73374;41.170;-96.156;2024-03-22T18:56:41;9.07;;;5.18;;
83443;SDS011;73374;41.170;-96.156;2024-03-22T19:01:44;7.55;;;4.43;;
83443;SDS011;73374;41.170;-96.156;2024-03-22T19:06:46;7.82;;;4.97;;
83443;SDS011;73374;41.170;-96.156;2024-03-22T19:11:48;6.20;;;4.32;;
83443;SDS011;73374;41.170;-96.156;2024-03-22T19:16:51;7.43;;;5.00;;
83443;SDS011;73374;41.170;-96.156;2024-03-22T19:21:53;9.27;;;5.20;;
83443;SDS011;73374;41.170;-96.156;2024-03-22T19:26:58;5.82;;;3.35;;
83443;SDS011;73374;41.170;-96.156;2024-03-22T19:32:01;9.43;;;4.97;;
83443;SDS011;73374;41.170;-96.156;2024-03-22T19:37:03;11.07;;;4.75;;
83443;SDS011;73374;41.170;-96.156;2024-03-22T19:42:05;10.93;;;4.85;;
83443;SDS011;73374;41.170;-96.156;2024-03-22T19:47:09;6.63;;;4.57;;
83443;SDS011;73374;41.170;-96.156;2024-03-22T19:52:10;11.93;;;4.97;;
83443;SDS011;73374;41.170;-96.156;2024-03-22T19:57:12;7.97;;;4.72;;
83443;SDS011;73374;41.170;-96.156;2024-03-22T20:02:15;10.10;;;5.47;;
83443;SDS011;73374;41.170;-96.156;2024-03-22T20:07:17;7.72;;;4.82;;
83443;SDS011;73374;41.170;-96.156;2024-03-22T20:12:19;9.60;;;4.45;;
83443;SDS011;73374;41.170;-96.156;2024-03-22T20:17:22;11.60;;;4.28;;
83443;SDS011;73374;41.170;-96.156;2024-03-22T20:22:24;7.10;;;4.50;;
83443;SDS011;73374;41.170;-96.156;2024-03-22T20:27:26;7.65;;;3.47;;
83443;SDS011;73374;41.170;-96.156;2024-03-22T20:32:29;8.73;;;3.30;;
83443;SDS011;73374;41.170;-96.156;2024-03-22T20:37:30;8.43;;;4.70;;
